Time;durP1;ratioP1;P1;durP2;ratioP2;P2;SDS_P1;SDS_P2;PMS_P1;PMS_P2;Temp;Humidity;BMP_temperature;BMP_pressure;BME280_temperature;BME280_humidity;BME280_pressure;Samples;Min_cycle;Max_cycle;Signal;HPM_P1;HPM_P2
2022/01/25 00:08:41;;;;;;;57.33;37.67;;;;;;;-146.64;100.00;40967.22;5068840;28;20058;-74
2022/01/25 00:25:05;;;;;;;65.25;40.10;;;;;;;-146.64;100.00;41266.16;5063744;28;20268;-73
2022/01/25 00:27:52;;;;;;;67.57;40.60;;;;;;;-146.64;100.00;41524.19;5069707;28;20020;-73
2022/01/25 00:30:41;;;;;;;63.70;40.70;;;;;;;-146.64;100.00;41534.41;5040355;28;20064;-73
2022/01/25 00:33:06;;;;;;;62.15;39.05;;;;;;;-146.64;100.00;41503.69;5042810;28;20103;-73
2022/01/25 00:35:32;;;;;;;63.42;39.83;;;;;;;-146.64;100.00;41786.28;5055071;28;20036;-73
2022/01/25 00:37:57;;;;;;;63.25;40.13;;;;;;;-146.64;100.00;41888.69;5061528;28;20024;-74
2022/01/25 00:40:22;;;;;;;62.35;40.05;;;;;;;-146.64;100.00;41892.78;5026734;28;20020;-73
2022/01/25 00:42:48;;;;;;;67.80;43.15;;;;;;;-146.64;100.00;42154.94;5038545;28;20378;-72
2022/01/25 00:45:15;;;;;;;68.38;42.33;;;;;;;-146.64;100.00;42222.53;5053776;28;20028;-73
2022/01/25 00:47:41;;;;;;;69.38;42.95;;;;;;;-146.64;100.00;42255.28;5055298;28;20028;-73
2022/01/25 00:50:14;;;;;;;64.40;40.95;;;;;;;-146.64;100.00;42644.44;5062317;28;20413;-73
2022/01/25 00:55:12;;;;;;;67.93;42.50;;;;;;;-146.64;100.00;43076.69;5057856;28;20522;-74
2022/01/25 00:57:37;;;;;;;;;;;;;;;-146.64;100.00;43209.84;5069412;28;20057;-74
2022/01/25 01:00:07;;;;;;;64.95;40.13;;;;;;;-146.64;100.00;43658.50;5060647;28;20032;-74
2022/01/25 01:02:32;;;;;;;65.00;43.47;;;;;;;-146.64;100.00;43765.03;5054776;28;20190;-74
2022/01/25 01:04:57;;;;;;;69.72;42.40;;;;;;;-146.64;100.00;45006.88;5051704;28;20108;-73
2022/01/25 01:07:23;;;;;;;68.47;42.97;;;;;;;-146.64;100.00;44795.78;5044274;28;20043;-74
2022/01/25 01:09:51;;;;;;;72.35;44.58;;;;;;;-146.64;100.00;44875.72;5036622;28;20173;-74
2022/01/25 01:13:25;;;;;;;70.85;44.25;;;;;;;-146.64;100.00;45443.47;5054281;28;20051;-73
2022/01/25 01:15:23;;;;;;;75.60;45.10;;;;;;;-146.64;100.00;45459.88;5046274;28;20043;-73
2022/01/25 01:43:40;;;;;;;70.60;43.25;;;;;;;-146.64;100.00;44121.56;5052698;28;20037;-73
2022/01/25 01:48:50;;;;;;;69.65;44.60;;;;;;;-146.64;100.00;44445.34;5070883;28;20059;-73
2022/01/25 01:51:28;;;;;;;65.85;42.92;;;;;;;-146.64;100.00;43892.09;5046402;28;20077;-73
2022/01/25 01:53:55;;;;;;;68.38;43.15;;;;;;;-146.64;100.00;44726.09;5067462;28;20028;-73
2022/01/25 01:56:21;;;;;;;75.07;46.03;;;;;;;-146.64;100.00;44773.25;5054045;28;20074;-73
2022/01/25 01:58:46;;;;;;;69.28;44.53;;;;;;;-146.64;100.00;44508.88;5071831;28;20045;-73
2022/01/25 02:01:16;;;;;;;74.70;45.60;;;;;;;-146.64;100.00;44793.75;5045799;28;20029;-73
2022/01/25 02:03:42;;;;;;;71.75;44.53;;;;;;;-146.64;100.00;44517.06;5067275;28;20391;-74
2022/01/25 02:06:08;;;;;;;70.30;44.88;;;;;;;-146.64;100.00;44420.75;5071786;28;20135;-73
2022/01/25 02:08:34;;;;;;;68.88;44.55;;;;;;;-146.64;100.00;44445.34;5036149;28;20086;-74
2022/01/25 02:11:02;;;;;;;77.75;46.30;;;;;;;-146.64;100.00;44617.50;5053414;28;20461;-73
2022/01/25 02:13:28;;;;;;;71.85;44.90;;;;;;;-146.64;100.00;44674.88;5053863;28;20093;-74
2022/01/25 02:15:55;;;;;;;68.38;44.42;;;;;;;-146.64;100.00;44691.28;5051983;28;20108;-74
2022/01/25 02:23:49;;;;;;;68.45;44.45;;;;;;;-146.64;100.00;44627.72;5069059;28;20082;-74
2022/01/25 02:26:15;;;;;;;72.57;44.28;;;;;;;-146.64;100.00;44902.34;5051926;28;20423;-73
2022/01/25 02:28:43;;;;;;;82.15;49.13;;;;;;;-146.64;100.00;45494.72;5052882;28;20115;-73
2022/01/25 02:31:10;;;;;;;74.53;46.67;;;;;;;-146.64;100.00;45876.00;5069682;28;20042;-74
2022/01/25 02:33:38;;;;;;;70.53;45.50;;;;;;;-146.64;100.00;45548.00;5069265;28;20020;-73
2022/01/25 02:36:07;;;;;;;75.70;46.50;;;;;;;-146.64;100.00;44945.41;5053130;28;20037;-74
2022/01/25 02:38:33;;;;;;;74.90;48.05;;;;;;;-146.64;100.00;45193.41;5036239;28;20367;-74
2022/01/25 02:40:59;;;;;;;73.13;46.20;;;;;;;-146.64;100.00;45552.09;5050266;28;20025;-74
2022/01/25 02:43:25;;;;;;;73.32;46.00;;;;;;;-146.64;100.00;46329.06;5070394;28;20169;-73
2022/01/25 02:49:08;;;;;;;70.30;44.60;;;;;;;-146.64;100.00;46261.41;4983105;28;20121;-74
2022/01/25 02:51:38;;;;;;;73.80;46.17;;;;;;;-146.64;100.00;45902.66;5066759;28;20024;-73
2022/01/25 02:54:04;;;;;;;75.25;47.63;;;;;;;-146.64;100.00;45798.09;5069018;28;20480;-73
2022/01/25 02:56:31;;;;;;;71.53;45.08;;;;;;;-146.64;100.00;46917.53;5036512;28;20040;-73
2022/01/25 02:58:56;;;;;;;77.00;45.70;;;;;;;-146.64;100.00;45539.81;5059924;28;20105;-73
2022/01/25 03:01:22;;;;;;;72.50;46.53;;;;;;;-146.64;100.00;46257.31;5052342;28;20111;-74
2022/01/25 03:03:49;;;;;;;70.73;45.83;;;;;;;-146.64;100.00;45740.69;5052600;28;20025;-74
2022/01/25 03:06:19;;;;;;;72.72;45.72;;;;;;;-146.64;100.00;46663.28;5034617;28;20170;-73
2022/01/25 03:08:45;;;;;;;74.53;45.63;;;;;;;-146.64;100.00;47735.78;5070767;28;20051;-74
2022/01/25 03:11:10;;;;;;;70.00;46.47;;;;;;;-146.64;100.00;47085.69;5052279;28;20111;-74
2022/01/25 03:13:48;;;;;;;69.55;43.92;;;;;;;-146.64;100.00;47077.47;5038907;28;20185;-74
2022/01/25 03:16:20;;;;;;;;;;;;;;;-146.64;100.00;47483.53;5054423;28;20513;-73
2022/01/25 03:18:48;;;;;;;71.13;43.60;;;;;;;-146.64;100.00;46858.06;5053785;28;20357;-73
2022/01/25 03:23:42;;;;;;;69.93;45.55;;;;;;;-146.64;100.00;47356.38;5052376;28;20028;-73
2022/01/25 03:26:08;;;;;;;76.82;46.67;;;;;;;-146.64;100.00;46927.78;5052254;28;20033;-74
2022/01/25 03:28:33;;;;;;;73.55;47.45;;;;;;;-146.64;100.00;46458.25;5044484;28;20480;-73
2022/01/25 03:30:58;;;;;;;78.20;47.63;;;;;;;-146.64;100.00;46105.59;5044365;28;20111;-73
2022/01/25 03:33:24;;;;;;;74.68;47.95;;;;;;;-146.64;100.00;46950.34;5037603;28;20151;-73
2022/01/25 03:35:49;;;;;;;70.90;45.40;;;;;;;-146.64;100.00;47278.44;5052101;28;20040;-73
2022/01/25 03:38:15;;;;;;;72.38;45.88;;;;;;;-146.64;100.00;47499.94;5048708;28;20032;-73
2022/01/25 03:40:40;;;;;;;80.22;47.28;;;;;;;-146.64;100.00;47221.03;5050540;28;20045;-74
2022/01/25 03:43:07;;;;;;;80.60;48.42;;;;;;;-146.64;100.00;46612.00;5035014;28;20080;-73
2022/01/25 03:45:35;;;;;;;78.45;48.42;;;;;;;-146.64;100.00;45267.19;5051012;28;20039;-73
2022/01/25 03:50:39;;;;;;;71.43;46.55;;;;;;;-146.64;100.00;45949.78;5070095;28;20028;-73
2022/01/25 03:53:06;;;;;;;68.95;44.53;;;;;;;-146.64;100.00;46679.69;5046884;28;20445;-74
2022/01/25 03:55:31;;;;;;;78.05;46.42;;;;;;;-146.64;100.00;46480.78;5071590;28;20044;-74
2022/01/25 03:57:57;;;;;;;73.88;46.13;;;;;;;-146.64;100.00;46294.22;5055425;28;20048;-73
2022/01/25 04:00:22;;;;;;;74.25;47.28;;;;;;;-146.64;100.00;45939.53;5054768;28;20385;-73
2022/01/25 04:02:57;;;;;;;70.90;45.55;;;;;;;-146.64;100.00;46413.13;5033302;28;20360;-73
2022/01/25 04:05:35;;;;;;;71.65;46.05;;;;;;;-146.64;100.00;46142.50;5043063;28;20032;-73
2022/01/25 04:08:00;;;;;;;79.15;46.95;;;;;;;-146.64;100.00;47056.97;5056228;28;20500;-73
2022/01/25 04:10:26;;;;;;;71.45;45.80;;;;;;;-146.64;100.00;47056.97;5071209;28;20028;-74
2022/01/25 04:12:51;;;;;;;77.25;47.40;;;;;;;-146.64;100.00;47910.13;5055606;28;20039;-74
2022/01/25 04:15:17;;;;;;;75.13;47.53;;;;;;;-146.64;100.00;47114.41;5047127;28;20403;-74
2022/01/25 04:17:46;;;;;;;73.90;45.58;;;;;;;-146.64;100.00;48386.00;5072156;28;20067;-73
2022/01/25 04:20:23;;;;;;;79.00;48.78;;;;;;;-146.64;100.00;47411.75;5040075;28;20029;-74
2022/01/25 04:25:33;;;;;;;74.45;47.47;;;;;;;-146.64;100.00;48734.75;5073565;28;20105;-73
2022/01/25 04:27:58;;;;;;;73.82;48.10;;;;;;;-146.64;100.00;48455.75;5070009;28;20036;-74
2022/01/25 04:30:24;;;;;;;72.95;47.15;;;;;;;-146.64;100.00;47832.19;5055046;28;20048;-73
2022/01/25 04:49:32;;;;;;;69.72;46.05;;;;;;;-146.64;100.00;47071.34;5066314;28;20027;-73
2022/01/25 04:52:03;;;;;;;71.28;47.30;;;;;;;-146.64;100.00;46901.13;5051568;28;20086;-74
2022/01/25 04:59:48;;;;;;;70.85;44.45;;;;;;;-146.64;100.00;47737.84;5056034;28;19923;-74
2022/01/25 05:02:19;;;;;;;69.53;46.20;;;;;;;-146.64;100.00;47620.94;5041531;28;20024;-74
2022/01/25 05:04:54;;;;;;;68.80;46.60;;;;;;;-146.64;100.00;47826.03;5053487;28;20468;-74
2022/01/25 05:07:32;;;;;;;70.05;46.13;;;;;;;-146.64;100.00;47914.22;5045626;28;20501;-75
2022/01/25 05:09:58;;;;;;;69.45;45.78;;;;;;;-146.64;100.00;46718.63;5036528;28;20024;-74
2022/01/25 05:15:59;;;;;;;71.68;46.17;;;;;;;-146.64;100.00;46259.38;5053087;28;20492;-73
2022/01/25 05:18:18;;;;;;;72.32;47.65;;;;;;;-146.64;100.00;46499.25;5059105;28;20071;-74
2022/01/25 05:23:28;;;;;;;77.65;47.35;;;;;;;-146.64;100.00;46540.25;5072586;28;20047;-74
2022/01/25 05:25:53;;;;;;;71.18;46.03;;;;;;;-146.64;100.00;47352.28;5051580;28;20025;-73
2022/01/25 05:28:19;;;;;;;74.05;46.80;;;;;;;-146.64;100.00;46761.69;5047902;28;20155;-73
2022/01/25 05:30:44;;;;;;;76.38;47.70;;;;;;;-146.64;100.00;46540.25;5072030;28;20028;-73
2022/01/25 05:33:10;;;;;;;76.28;48.55;;;;;;;-146.64;100.00;47666.06;5054594;28;20024;-73
2022/01/25 05:35:35;;;;;;;80.80;49.22;;;;;;;-146.64;100.00;47028.28;5033959;28;20456;-73
2022/01/25 05:38:01;;;;;;;74.53;47.53;;;;;;;-146.64;100.00;47208.72;5054477;28;20028;-74
2022/01/25 05:40:39;;;;;;;76.85;47.72;;;;;;;-146.64;100.00;46704.28;5054290;28;20097;-73
2022/01/25 05:45:57;;;;;;;80.30;48.63;;;;;;;-146.64;100.00;45910.84;5045806;28;20032;-73
2022/01/25 05:48:23;;;;;;;79.32;48.38;;;;;;;-146.64;100.00;45939.53;5040281;28;20032;-73
2022/01/25 05:50:49;;;;;;;77.07;49.60;;;;;;;-146.64;100.00;46472.59;5070816;28;20036;-74
2022/01/25 05:53:14;;;;;;;74.80;47.83;;;;;;;-146.64;100.00;46827.31;5050677;28;20036;-73
2022/01/25 05:55:39;;;;;;;79.47;47.70;;;;;;;-146.64;100.00;47483.53;5052501;28;20056;-73
2022/01/25 05:58:05;;;;;;;77.03;48.55;;;;;;;-146.64;100.00;45927.25;5071219;28;20111;-73
2022/01/25 06:00:30;;;;;;;81.30;47.05;;;;;;;-146.64;100.00;46232.72;5036228;28;20047;-73
2022/01/25 06:02:56;;;;;;;81.82;50.55;;;;;;;-146.64;100.00;46741.19;5053787;28;20458;-74
2022/01/25 06:05:23;;;;;;;77.57;47.05;;;;;;;-146.64;100.00;45994.91;5053255;28;20059;-73
2022/01/25 06:07:49;;;;;;;81.38;50.22;;;;;;;-146.64;100.00;46052.31;5049796;28;20029;-72
2022/01/25 06:10:15;;;;;;;78.57;48.35;;;;;;;-146.64;100.00;46626.38;5064904;28;20085;-73
2022/01/25 06:12:42;;;;;;;86.30;51.00;;;;;;;-146.64;100.00;46355.72;5057568;28;20488;-73
2022/01/25 06:15:08;;;;;;;81.03;48.97;;;;;;;-146.64;100.00;46669.44;5023158;28;20161;-73
2022/01/25 06:17:33;;;;;;;74.72;47.58;;;;;;;-146.64;100.00;46003.09;5058540;28;20037;-73
2022/01/25 06:19:58;;;;;;;81.28;50.72;;;;;;;-146.64;100.00;45787.84;5029622;28;20447;-73
2022/01/25 06:22:24;;;;;;;76.68;48.33;;;;;;;-146.64;100.00;45843.19;5069682;28;20035;-74
2022/01/25 06:24:49;;;;;;;79.30;49.53;;;;;;;-146.64;100.00;44789.63;5057451;28;20032;-73
2022/01/25 06:27:15;;;;;;;82.65;49.65;;;;;;;-146.64;100.00;44793.75;5043715;28;20025;-73
2022/01/25 06:29:40;;;;;;;83.15;51.42;;;;;;;-146.64;100.00;44576.50;5070017;28;20035;-73
2022/01/25 06:32:09;;;;;;;78.63;49.35;;;;;;;-146.64;100.00;44795.78;5053074;28;20033;-74
2022/01/25 06:34:34;;;;;;;79.05;50.20;;;;;;;-146.64;100.00;45302.03;5050323;28;20040;-73
2022/01/25 06:37:00;;;;;;;84.65;49.22;;;;;;;-146.64;100.00;44252.72;5035532;28;20029;-73
2022/01/25 06:39:25;;;;;;;78.10;48.42;;;;;;;-146.64;100.00;44080.59;5063030;28;20035;-73
2022/01/25 06:41:51;;;;;;;80.20;49.97;;;;;;;-146.64;100.00;43687.19;5022266;28;20033;-73
2022/01/25 06:44:16;;;;;;;82.83;51.20;;;;;;;-146.64;100.00;43330.69;5050134;28;20069;-73
2022/01/25 06:46:42;;;;;;;78.47;47.95;;;;;;;-146.64;100.00;43211.88;5051996;28;20123;-73
2022/01/25 06:49:07;;;;;;;82.53;49.60;;;;;;;-146.64;100.00;43674.91;5035048;28;20036;-73
2022/01/25 06:51:33;;;;;;;84.68;50.88;;;;;;;-146.64;100.00;42947.63;5047650;28;20443;-73
2022/01/25 06:53:58;;;;;;;96.72;52.00;;;;;;;-146.64;100.00;41196.53;5069012;28;20021;-73
2022/01/25 06:56:23;;;;;;;92.20;52.70;;;;;;;-146.64;100.00;40954.94;5033183;28;20044;-73
2022/01/25 06:58:49;;;;;;;88.20;50.03;;;;;;;-146.64;100.00;40746.09;5048044;28;20028;-74
2022/01/25 07:01:14;;;;;;;94.55;52.80;;;;;;;-146.64;100.00;40854.63;5051353;28;20348;-74
2022/01/25 07:03:39;;;;;;;90.22;50.65;;;;;;;-146.64;100.00;40971.31;5052686;28;20029;-73
2022/01/25 07:06:05;;;;;;;95.78;51.28;;;;;;;-146.64;100.00;41077.78;5052891;28;20036;-73
2022/01/25 07:08:30;;;;;;;85.15;51.35;;;;;;;-146.64;100.00;41171.97;5048465;28;20052;-73
2022/01/25 07:10:55;;;;;;;89.78;49.97;;;;;;;-146.64;100.00;41384.94;5022703;28;20039;-73
2022/01/25 07:13:21;;;;;;;91.93;52.28;;;;;;;-146.64;100.00;41206.78;5033130;28;20052;-74
2022/01/25 07:15:46;;;;;;;87.00;50.60;;;;;;;-146.64;100.00;41081.88;5019851;28;20029;-73
2022/01/25 07:18:11;;;;;;;89.45;50.08;;;;;;;-146.64;100.00;41429.97;5047056;28;20039;-73
2022/01/25 07:20:37;;;;;;;90.72;52.13;;;;;;;-146.64;100.00;41292.78;5052004;28;20020;-74
2022/01/25 07:23:02;;;;;;;86.93;49.45;;;;;;;-146.64;100.00;41466.84;5036212;28;20525;-73
2022/01/25 07:25:27;;;;;;;86.35;52.25;;;;;;;-146.64;100.00;41446.38;5052547;28;20036;-74
2022/01/25 07:27:53;;;;;;;89.82;51.38;;;;;;;-146.64;100.00;41194.50;5069782;28;20025;-73
2022/01/25 07:30:18;;;;;;;93.13;53.30;;;;;;;-146.64;100.00;41223.16;5052042;28;20044;-73
2022/01/25 07:32:44;;;;;;;87.32;51.63;;;;;;;-146.64;100.00;41169.94;5029988;28;20476;-73
2022/01/25 07:35:09;;;;;;;94.07;51.33;;;;;;;-146.64;100.00;41085.97;5036972;28;20046;-74
2022/01/25 07:37:35;;;;;;;88.57;50.30;;;;;;;-146.64;100.00;41065.50;5052559;28;20047;-74
2022/01/25 07:40:00;;;;;;;86.45;50.63;;;;;;;-146.64;100.00;41094.16;5032766;28;20028;-74
2022/01/25 07:42:28;;;;;;;95.00;51.08;;;;;;;-146.64;100.00;41376.75;5049936;28;20039;-73
2022/01/25 07:44:54;;;;;;;93.82;53.00;;;;;;;-146.64;100.00;41188.34;5062863;28;20405;-73
2022/01/25 07:47:19;;;;;;;93.95;52.22;;;;;;;-146.64;100.00;41040.94;5047527;28;20041;-73
2022/01/25 07:49:45;;;;;;;89.70;49.78;;;;;;;-146.64;100.00;41249.78;5048734;28;20041;-73
2022/01/25 07:52:10;;;;;;;90.88;51.83;;;;;;;-146.64;100.00;41247.75;5051342;28;20024;-73
2022/01/25 07:54:35;;;;;;;98.38;52.75;;;;;;;-146.64;100.00;41094.16;5049967;28;20048;-73
2022/01/25 07:57:01;;;;;;;88.00;50.60;;;;;;;-146.64;100.00;40959.03;5066833;28;20078;-73
2022/01/25 07:59:26;;;;;;;87.57;50.90;;;;;;;-146.64;100.00;41024.56;5047183;28;20028;-73
2022/01/25 08:01:51;;;;;;;93.95;52.92;;;;;;;-146.64;100.00;41356.25;5021269;28;20095;-73
2022/01/25 08:04:18;;;;;;;95.00;52.97;;;;;;;-146.64;100.00;40967.22;5031879;28;20026;-74
2022/01/25 08:06:43;;;;;;;91.97;53.37;;;;;;;-146.64;100.00;41241.59;5031690;28;20480;-73
2022/01/25 08:09:09;;;;;;;92.15;52.13;;;;;;;-146.64;100.00;41212.94;5045317;28;20813;-74
2022/01/25 08:11:35;;;;;;;94.53;54.38;;;;;;;-146.64;100.00;41034.78;5051946;28;20028;-74
2022/01/25 08:14:12;;;;;;;93.43;52.42;;;;;;;-146.64;100.00;40989.75;5051052;28;20518;-74
2022/01/25 08:16:39;;;;;;;96.65;54.30;;;;;;;-146.64;100.00;40744.06;5050358;28;20361;-74
2022/01/25 08:19:04;;;;;;;94.68;51.78;;;;;;;-146.64;100.00;40664.22;5054073;28;20047;-73
2022/01/25 08:21:30;;;;;;;88.95;50.70;;;;;;;-146.64;100.00;40647.84;5051944;28;20461;-74
2022/01/25 08:23:55;;;;;;;93.85;52.42;;;;;;;-146.64;100.00;40660.13;5049781;28;20056;-73
2022/01/25 08:26:20;;;;;;;100.13;52.20;;;;;;;-146.64;100.00;40594.59;5051439;28;20109;-73
2022/01/25 08:28:46;;;;;;;97.53;53.40;;;;;;;-146.64;100.00;40676.50;5035123;28;20429;-74
2022/01/25 08:31:11;;;;;;;96.85;53.97;;;;;;;-146.64;100.00;40692.88;5049465;28;20086;-73
2022/01/25 08:33:39;;;;;;;95.82;53.20;;;;;;;-146.64;100.00;40643.75;5048132;28;20179;-73
2022/01/25 08:36:04;;;;;;;94.68;54.00;;;;;;;-146.64;100.00;40561.84;5054183;28;20028;-74
2022/01/25 08:38:30;;;;;;;94.35;51.95;;;;;;;-146.64;100.00;40502.47;5031386;28;20079;-74
2022/01/25 08:40:55;;;;;;;96.00;53.35;;;;;;;-146.64;100.00;40492.25;5027693;28;20048;-74
2022/01/25 08:43:20;;;;;;;96.60;54.13;;;;;;;-146.64;100.00;40447.22;5052594;28;20028;-74
2022/01/25 08:45:46;;;;;;;95.72;53.28;;;;;;;-146.64;100.00;40496.34;5054182;28;20029;-74
2022/01/25 08:48:11;;;;;;;94.88;52.90;;;;;;;-146.64;100.00;40508.63;5058829;28;20029;-74
2022/01/25 08:50:39;;;;;;;96.70;51.10;;;;;;;-146.64;100.00;40479.97;5053838;28;20150;-74
2022/01/25 08:53:07;;;;;;;101.18;53.83;;;;;;;-146.64;100.00;40443.13;5051988;28;20116;-74
2022/01/25 08:55:32;;;;;;;93.10;50.65;;;;;;;-146.64;100.00;40518.84;5032829;28;20131;-74
2022/01/25 08:57:58;;;;;;;95.68;53.05;;;;;;;-146.64;100.00;40369.41;5033125;28;20120;-74
2022/01/25 09:00:23;;;;;;;92.80;51.42;;;;;;;-146.64;100.00;40385.78;5040893;28;20549;-74
2022/01/25 09:02:49;;;;;;;96.90;53.83;;;;;;;-146.64;100.00;40361.22;5052672;28;20138;-74
2022/01/25 09:05:14;;;;;;;95.15;52.25;;;;;;;-146.64;100.00;40328.47;5048561;28;20033;-74
2022/01/25 09:07:39;;;;;;;99.93;53.63;;;;;;;-146.64;100.00;40330.53;5046766;28;20559;-74
2022/01/25 09:10:06;;;;;;;97.05;53.00;;;;;;;-146.64;100.00;40443.13;5065727;28;20112;-74
2022/01/25 09:12:31;;;;;;;100.40;56.03;;;;;;;-146.64;100.00;40246.59;5037630;28;20048;-74
2022/01/25 09:14:56;;;;;;;96.28;52.58;;;;;;;-146.64;100.00;40258.88;5051380;28;20068;-74
2022/01/25 09:17:21;;;;;;;92.03;50.00;;;;;;;-146.64;100.00;40316.19;5059056;28;20055;-74
2022/01/25 09:19:47;;;;;;;99.57;53.72;;;;;;;-146.64;100.00;40271.16;5047025;28;20383;-74
2022/01/25 09:22:12;;;;;;;101.78;54.47;;;;;;;-146.64;100.00;40312.09;5053335;28;20032;-74
2022/01/25 09:24:38;;;;;;;97.93;53.58;;;;;;;-146.64;100.00;40324.38;5034908;28;20033;-74
2022/01/25 09:27:05;;;;;;;98.63;52.22;;;;;;;-146.64;100.00;40226.13;5036900;28;20024;-74
2022/01/25 09:29:31;;;;;;;100.50;53.95;;;;;;;-146.64;100.00;40234.31;5036711;28;20035;-74
2022/01/25 09:31:56;;;;;;;92.25;51.47;;;;;;;-146.64;100.00;40213.84;5037264;28;20040;-74
2022/01/25 09:34:23;;;;;;;95.80;51.03;;;;;;;-146.64;100.00;40177.00;5067554;28;20107;-74
2022/01/25 09:36:52;;;;;;;95.88;51.58;;;;;;;-146.64;100.00;40211.78;5048652;28;20496;-74
2022/01/25 09:39:18;;;;;;;99.18;53.25;;;;;;;-146.64;100.00;40181.09;5026448;28;20035;-74
2022/01/25 09:41:43;;;;;;;96.13;51.85;;;;;;;-146.64;100.00;40181.09;5071618;28;20028;-74
2022/01/25 09:44:09;;;;;;;102.35;52.63;;;;;;;-146.64;100.00;40213.84;5071430;28;20069;-74
2022/01/25 09:46:34;;;;;;;94.10;51.17;;;;;;;-146.64;100.00;40156.50;5049542;28;20039;-74
2022/01/25 09:48:59;;;;;;;95.18;53.03;;;;;;;-146.64;100.00;40154.47;5056785;28;20056;-74
2022/01/25 09:51:25;;;;;;;98.03;53.90;;;;;;;-146.64;100.00;40144.22;5051216;28;20071;-74
2022/01/25 09:53:51;;;;;;;98.78;54.40;;;;;;;-146.64;100.00;40078.72;5043941;28;20032;-74
2022/01/25 09:56:16;;;;;;;97.00;53.35;;;;;;;-146.64;100.00;40129.91;5065128;28;20044;-74
2022/01/25 09:58:42;;;;;;;98.95;54.10;;;;;;;-146.64;100.00;40035.75;5057094;28;20024;-75
2022/01/25 10:01:08;;;;;;;95.78;52.45;;;;;;;-146.64;100.00;40058.25;5072824;28;20028;-74
2022/01/25 10:03:39;;;;;;;98.40;54.17;;;;;;;-146.64;100.00;40086.91;5076418;28;20036;-74
2022/01/25 10:06:12;;;;;;;99.03;53.33;;;;;;;-146.64;100.00;40054.16;5057015;28;20059;-74
2022/01/25 10:08:38;;;;;;;95.70;53.58;;;;;;;-146.64;100.00;40029.59;5067931;28;20021;-74
2022/01/25 10:11:10;;;;;;;96.05;54.10;;;;;;;-146.64;100.00;40033.69;5033781;28;20024;-74
2022/01/25 10:13:43;;;;;;;100.95;53.97;;;;;;;-146.64;100.00;40037.78;5053804;28;20093;-74
2022/01/25 10:16:14;;;;;;;101.05;54.55;;;;;;;-146.64;100.00;40078.72;5049831;28;20021;-74
2022/01/25 10:18:59;;;;;;;97.80;54.67;;;;;;;-146.64;100.00;40164.72;5044882;28;20035;-74
2022/01/25 10:21:26;;;;;;;98.13;52.17;;;;;;;-146.64;100.00;40078.72;5066939;28;20055;-74
2022/01/25 10:24:06;;;;;;;102.90;54.85;;;;;;;-146.64;100.00;40050.06;5048908;28;20047;-74
2022/01/25 10:26:53;;;;;;;92.72;52.30;;;;;;;-146.64;100.00;40086.91;5071081;28;20024;-74
2022/01/25 10:29:27;;;;;;;102.60;55.50;;;;;;;-146.64;100.00;40033.69;5050320;28;20114;-74
2022/01/25 10:32:21;;;;;;;105.22;56.08;;;;;;;-146.64;100.00;40015.28;5053973;28;20438;-74
2022/01/25 10:34:49;;;;;;;106.65;56.55;;;;;;;-146.64;100.00;40013.22;5059995;28;20111;-74
2022/01/25 10:37:17;;;;;;;100.68;54.35;;;;;;;-146.64;100.00;40021.41;5052977;28;20036;-74
2022/01/25 10:39:46;;;;;;;103.40;56.58;;;;;;;-146.64;100.00;39964.09;5049493;28;20078;-74
2022/01/25 10:42:18;;;;;;;102.65;55.47;;;;;;;-146.64;100.00;40029.59;5050042;28;20395;-75
2022/01/25 10:44:52;;;;;;;100.93;55.13;;;;;;;-146.64;100.00;40043.94;5034732;28;20116;-73
2022/01/25 10:47:21;;;;;;;110.43;53.65;;;;;;;-146.64;100.00;39951.81;5063116;28;20376;-73
2022/01/25 10:49:48;;;;;;;106.07;55.58;;;;;;;-146.64;100.00;39949.78;5070719;28;20032;-74
2022/01/25 10:52:22;;;;;;;99.20;55.20;;;;;;;-146.64;100.00;39984.56;5035805;28;20028;-74
2022/01/25 10:54:48;;;;;;;103.25;55.70;;;;;;;-146.64;100.00;39994.81;5050709;28;20041;-73
2022/01/25 10:57:18;;;;;;;100.60;55.28;;;;;;;-146.64;100.00;39962.06;5050696;28;20391;-73
2022/01/25 10:59:59;;;;;;;99.53;53.88;;;;;;;-146.64;100.00;39972.28;5052091;28;20024;-74
2022/01/25 11:02:25;;;;;;;97.47;54.40;;;;;;;-146.64;100.00;39935.44;5047973;28;20029;-73
2022/01/25 11:04:52;;;;;;;100.72;54.63;;;;;;;-146.64;100.00;39947.72;5023218;28;20037;-73
2022/01/25 11:07:18;;;;;;;103.72;54.58;;;;;;;-146.64;100.00;39972.28;5051464;28;20024;-73
2022/01/25 11:09:46;;;;;;;97.18;53.92;;;;;;;-146.64;100.00;39886.31;5069173;28;20395;-73
2022/01/25 11:12:17;;;;;;;100.25;55.42;;;;;;;-146.64;100.00;39933.41;5048771;28;20057;-73
2022/01/25 11:14:50;;;;;;;102.40;56.63;;;;;;;-146.64;100.00;39919.06;5016434;28;20017;-73
2022/01/25 11:17:16;;;;;;;100.85;55.58;;;;;;;-146.64;100.00;39902.69;5042974;28;20025;-73
2022/01/25 11:19:42;;;;;;;104.27;56.00;;;;;;;-146.64;100.00;39910.88;5042852;28;20473;-73
2022/01/25 11:22:10;;;;;;;99.05;54.28;;;;;;;-146.64;100.00;39837.19;5065589;28;20036;-73
2022/01/25 11:24:37;;;;;;;97.03;53.13;;;;;;;-146.64;100.00;39900.66;5052205;28;20025;-74
2022/01/25 11:27:04;;;;;;;100.72;54.95;;;;;;;-146.64;100.00;39872.00;5029204;28;20508;-74
2022/01/25 11:29:30;;;;;;;100.28;54.75;;;;;;;-146.64;100.00;39874.03;5044854;28;20024;-74
2022/01/25 11:32:02;;;;;;;100.50;54.80;;;;;;;-146.64;100.00;39857.66;5050902;28;20039;-73
2022/01/25 11:34:29;;;;;;;100.22;54.33;;;;;;;-146.64;100.00;39878.13;5042983;28;20376;-73
2022/01/25 11:37:01;;;;;;;102.20;55.08;;;;;;;-146.64;100.00;39853.56;5046322;28;20392;-73
2022/01/25 11:39:27;;;;;;;101.07;53.63;;;;;;;-146.64;100.00;39857.66;5047981;28;20448;-73
2022/01/25 11:42:12;;;;;;;98.20;53.72;;;;;;;-146.64;100.00;39816.72;5031802;28;20056;-73
2022/01/25 11:44:54;;;;;;;98.45;53.67;;;;;;;-146.64;100.00;39816.72;5057629;28;20039;-73
2022/01/25 11:47:31;;;;;;;100.40;54.38;;;;;;;-146.64;100.00;39808.53;5034800;28;20115;-73
2022/01/25 11:50:00;;;;;;;102.38;54.08;;;;;;;-146.64;100.00;39829.00;5069677;28;20480;-73
2022/01/25 11:52:27;;;;;;;101.35;56.10;;;;;;;-146.64;100.00;39833.09;5051473;28;20052;-73
2022/01/25 11:55:11;;;;;;;110.95;57.55;;;;;;;-146.64;100.00;39773.75;5050533;28;20114;-73
2022/01/25 11:57:49;;;;;;;100.90;54.72;;;;;;;-146.64;100.00;39755.31;5067611;28;20032;-73
2022/01/25 12:00:15;;;;;;;104.07;55.72;;;;;;;-146.64;100.00;39800.34;5068494;28;20040;-73
2022/01/25 12:02:50;;;;;;;114.68;58.05;;;;;;;-146.64;100.00;39767.59;5065923;28;20404;-74
2022/01/25 12:05:27;;;;;;;109.68;59.00;;;;;;;-146.64;100.00;39771.69;5063890;28;20036;-74
2022/01/25 12:08:10;;;;;;;112.00;60.67;;;;;;;-146.64;100.00;39775.78;5028853;28;20041;-74
2022/01/25 12:10:42;;;;;;;116.95;59.83;;;;;;;-146.64;100.00;39788.06;5032179;28;20212;-75
2022/01/25 12:13:15;;;;;;;110.10;58.50;;;;;;;-146.64;100.00;39783.97;5054233;28;20480;-74
2022/01/25 12:15:41;;;;;;;103.38;55.45;;;;;;;-146.64;100.00;39775.78;5046618;28;20119;-74
2022/01/25 12:18:28;;;;;;;109.43;59.60;;;;;;;-146.64;100.00;39788.06;5043136;28;20033;-74
2022/01/25 12:20:54;;;;;;;113.82;60.97;;;;;;;-146.64;100.00;39788.06;5038276;28;20028;-74
2022/01/25 12:23:42;;;;;;;118.63;61.53;;;;;;;-146.64;100.00;39775.78;5048771;28;20024;-74
2022/01/25 12:26:14;;;;;;;111.18;60.60;;;;;;;-146.64;100.00;39812.63;5073647;28;20421;-74
2022/01/25 12:28:44;;;;;;;114.60;59.88;;;;;;;-146.64;100.00;39775.78;5072907;28;20385;-74
2022/01/25 12:31:14;;;;;;;118.93;60.38;;;;;;;-146.64;100.00;39734.84;5071484;28;20017;-74
2022/01/25 12:33:40;;;;;;;113.57;61.20;;;;;;;-146.64;100.00;39769.66;5061893;28;20025;-74
2022/01/25 12:36:07;;;;;;;111.88;61.42;;;;;;;-146.64;100.00;39751.22;5059530;28;20396;-74
2022/01/25 12:38:43;;;;;;;;;;;;;;;-146.64;100.00;39771.69;5070035;28;20028;-74